Terminal Aerodrome Forecast
Issued by NWS

Home | Current Version | Previous Version | Text Only | Print | Product List | Glossary On
Versions: 1 2 3 4 5 6 7 8 9 10 11 12
000
FTUS45 KPSR 302300
TAFIPL
TAF
KIPL 302320Z 0100/0124 13005KT P6SM SKC
     FM010200 27005KT P6SM SKC
     FM011500 VRB05KT P6SM SKC=

USA.gov is the U.S. government's official web portal to all federal, state and local government web resources and services.